createdAt,value
2022-10-23T00:00:48.843Z,100424.44
2022-10-23T00:05:52.446Z,100440.22
2022-10-23T00:10:55.991Z,100427.06
2022-10-23T00:16:01.176Z,100435.00
2022-10-23T00:21:05.991Z,100434.72
2022-10-23T00:26:09.670Z,100430.88
2022-10-23T00:31:15.226Z,100430.63
2022-10-23T00:36:20.685Z,100427.00
2022-10-23T00:41:26.299Z,100422.34
2022-10-23T00:46:32.902Z,100426.09
2022-10-23T00:51:41.229Z,100423.16
2022-10-23T00:56:46.159Z,100435.34
2022-10-23T01:01:52.671Z,100417.50
2022-10-23T01:07:04.487Z,100428.97
2022-10-23T01:12:16.072Z,100435.22
2022-10-23T01:17:30.057Z,100453.03
2022-10-23T01:22:59.391Z,100442.78
2022-10-23T01:28:10.105Z,100435.69
2022-10-23T01:33:18.650Z,100444.34
2022-10-23T01:38:29.663Z,100453.97
2022-10-23T01:43:41.790Z,100460.84
2022-10-23T01:48:49.242Z,100463.59
2022-10-23T01:53:56.658Z,100474.25
2022-10-23T01:59:05.406Z,100486.00
2022-10-23T02:04:13.010Z,100484.44
2022-10-23T02:09:16.902Z,100499.47
2022-10-23T02:14:29.792Z,100504.72
2022-10-23T02:19:41.903Z,100504.03
2022-10-23T02:24:50.497Z,100523.44
2022-10-23T02:29:58.648Z,100501.31
2022-10-23T02:35:02.686Z,100514.88
2022-10-23T02:40:08.995Z,100505.28
2022-10-23T02:45:20.336Z,100512.31
2022-10-23T02:50:31.603Z,100510.25
2022-10-23T02:55:46.437Z,100522.53
2022-10-23T03:00:55.693Z,100534.03
2022-10-23T03:05:59.603Z,100541.81
2022-10-23T03:11:03.114Z,100531.63
2022-10-23T03:16:08.585Z,100536.59
2022-10-23T03:21:12.095Z,100532.66
2022-10-23T03:26:15.669Z,100538.75
2022-10-23T03:31:20.847Z,100554.63
2022-10-23T03:36:24.383Z,100555.03
2022-10-23T03:41:28.023Z,100556.53
2022-10-23T03:46:33.172Z,100561.09
2022-10-23T03:51:36.702Z,100578.94
2022-10-23T03:56:40.255Z,100572.09
2022-10-23T04:01:46.059Z,100581.69
2022-10-23T04:06:48.973Z,100591.47
2022-10-23T04:11:52.941Z,100607.47
2022-10-23T04:16:58.122Z,100601.63
2022-10-23T04:22:01.640Z,100610.78
2022-10-23T04:27:05.296Z,100612.31
2022-10-23T04:32:10.490Z,100605.66
2022-10-23T04:37:14.036Z,100617.78
2022-10-23T04:42:17.605Z,100638.41
2022-10-23T04:47:22.770Z,100632.16
2022-10-23T04:52:26.350Z,100650.69
2022-10-23T04:57:29.885Z,100655.72
2022-10-23T05:02:35.099Z,100638.53
2022-10-23T05:07:39.061Z,100645.53
2022-10-23T05:12:42.577Z,100633.31
2022-10-23T05:17:50.955Z,100649.22
2022-10-23T05:22:57.626Z,100651.63
2022-10-23T05:28:01.171Z,100657.75
2022-10-23T05:33:06.770Z,100676.31
2022-10-23T05:38:11.073Z,100685.41
2022-10-23T05:43:14.604Z,100694.00
2022-10-23T05:48:30.077Z,100694.75
2022-10-23T05:53:40.102Z,100705.34
2022-10-23T05:58:46.364Z,100716.06
2022-10-23T06:03:51.734Z,100726.47
2022-10-23T06:08:55.947Z,100734.09
2022-10-23T06:13:59.465Z,100731.59
2022-10-23T06:19:05.131Z,100728.06
2022-10-23T06:24:09.098Z,100732.63
2022-10-23T06:29:12.659Z,100738.03
2022-10-23T06:34:17.822Z,100748.44
2022-10-23T06:39:21.491Z,100758.41
2022-10-23T06:44:25.993Z,100764.56
2022-10-23T06:49:31.156Z,100765.69
2022-10-23T06:54:34.824Z,100773.59
2022-10-23T06:59:38.334Z,100765.78
2022-10-23T07:04:43.508Z,100769.00
2022-10-23T07:09:47.042Z,100771.16
2022-10-23T07:14:51.167Z,100776.41
2022-10-23T07:19:56.382Z,100778.13
2022-10-23T07:24:59.914Z,100778.22
2022-10-23T07:30:03.468Z,100779.19
2022-10-23T07:35:09.765Z,100781.97
2022-10-23T07:40:13.605Z,100789.13
2022-10-23T07:45:17.292Z,100797.13
2022-10-23T07:50:22.503Z,100796.31
2022-10-23T07:55:26.094Z,100797.22
2022-10-23T08:00:29.627Z,100808.69
2022-10-23T08:05:34.797Z,100813.13
2022-10-23T08:10:38.348Z,100812.44
2022-10-23T08:15:42.829Z,100812.50
2022-10-23T08:20:49.292Z,100810.00
2022-10-23T08:25:58.627Z,100803.03
2022-10-23T08:31:09.344Z,100819.72
2022-10-23T08:36:20.720Z,100825.97
2022-10-23T08:41:28.815Z,100813.78
2022-10-23T08:46:38.443Z,100828.78
2022-10-23T08:51:47.769Z,100832.31
2022-10-23T08:56:55.078Z,100835.03
2022-10-23T09:02:02.043Z,100841.09
2022-10-23T09:07:15.649Z,100844.47
2022-10-23T09:12:23.108Z,100840.25
2022-10-23T09:17:28.218Z,100862.03
2022-10-23T09:22:33.478Z,100863.63
2022-10-23T09:27:37.043Z,100857.59
2022-10-23T09:32:40.646Z,100861.25
2022-10-23T09:37:48.551Z,100862.94
2022-10-23T09:42:57.289Z,100875.97
2022-10-23T09:48:21.084Z,100880.28
2022-10-23T09:53:32.961Z,100875.97
2022-10-23T09:58:39.382Z,100878.56
2022-10-23T10:03:50.349Z,100881.28
2022-10-23T10:08:57.129Z,100885.81
2022-10-23T10:14:24.961Z,100883.13
2022-10-23T10:19:44.489Z,100889.22
2022-10-23T10:24:53.370Z,100892.94
2022-10-23T10:30:06.052Z,100893.22
2022-10-23T10:35:25.514Z,100893.50
2022-10-23T10:40:35.008Z,100906.66
2022-10-23T10:45:42.498Z,100908.41
2022-10-23T10:50:51.640Z,100926.19
2022-10-23T10:55:59.462Z,100928.03
2022-10-23T11:01:12.256Z,100925.50
2022-10-23T11:06:19.481Z,100925.50
2022-10-23T11:11:29.541Z,100935.94
2022-10-23T11:16:37.442Z,100934.22
2022-10-23T11:21:44.894Z,100940.66
2022-10-23T11:27:08.904Z,100945.09
2022-10-23T11:32:38.765Z,100945.91
2022-10-23T11:37:43.428Z,100948.59
2022-10-23T11:42:50.462Z,100959.22
2022-10-23T11:47:59.236Z,100954.94
2022-10-23T11:53:21.228Z,100953.25
2022-10-23T11:58:40.788Z,100962.97
2022-10-23T12:03:52.239Z,100973.47
2022-10-23T12:09:01.722Z,100970.84
2022-10-23T12:14:25.358Z,100988.19
2022-10-23T12:19:30.594Z,100990.97
2022-10-23T12:24:49.987Z,100998.81
2022-10-23T12:30:11.982Z,101004.06
2022-10-23T12:35:50.124Z,101010.34
2022-10-23T12:40:56.062Z,101014.81
2022-10-23T12:46:05.861Z,101018.38
2022-10-23T12:51:23.076Z,101021.03
2022-10-23T12:56:29.496Z,101026.16
2022-10-23T13:01:39.417Z,101028.78
2022-10-23T13:06:45.617Z,101051.44
2022-10-23T13:11:50.023Z,101056.81
2022-10-23T13:17:02.629Z,101064.91
2022-10-23T13:22:19.359Z,101065.00
2022-10-23T13:27:34.976Z,101076.59
2022-10-23T13:32:40.177Z,101077.97
2022-10-23T13:42:50.246Z,101093.97
2022-10-23T13:47:55.438Z,101102.06
2022-10-23T13:52:58.950Z,101115.97
2022-10-23T13:58:02.467Z,101123.81
2022-10-23T14:03:07.713Z,101121.13
2022-10-23T14:08:11.534Z,101123.72
2022-10-23T14:13:15.259Z,101127.13
2022-10-23T14:18:20.456Z,101123.63
2022-10-23T14:23:23.971Z,101121.13
2022-10-23T14:28:27.486Z,101131.41
2022-10-23T14:33:32.764Z,101133.91
2022-10-23T14:38:36.343Z,101145.03
2022-10-23T14:43:40.063Z,101139.41
2022-10-23T14:48:47.176Z,101145.69
2022-10-23T14:53:58.894Z,101157.94
2022-10-23T14:59:03.007Z,101156.31
2022-10-23T15:04:08.391Z,101163.38
2022-10-23T15:09:11.939Z,101172.72
2022-10-23T15:14:15.490Z,101178.56
2022-10-23T15:19:20.660Z,101184.63
2022-10-23T15:24:24.237Z,101188.84
2022-10-23T15:29:27.752Z,101201.44
2022-10-23T15:34:33.201Z,101206.44
2022-10-23T15:39:36.925Z,101217.31
2022-10-23T15:44:40.957Z,101222.50
2022-10-23T15:49:46.101Z,101228.53
2022-10-23T15:54:49.636Z,101233.88
2022-10-23T15:59:53.168Z,101243.94
2022-10-23T16:04:58.327Z,101239.25
2022-10-23T16:10:01.852Z,101247.81
2022-10-23T16:15:05.976Z,101241.41
2022-10-23T16:20:12.057Z,101243.66
2022-10-23T16:25:15.699Z,101266.81
2022-10-23T16:30:19.333Z,101277.56
2022-10-23T16:35:24.796Z,101287.31
2022-10-23T16:40:28.370Z,101296.19
2022-10-23T16:45:34.418Z,101302.94
2022-10-23T16:50:42.654Z,101309.34
2022-10-23T16:55:46.155Z,101304.44
2022-10-23T17:00:57.903Z,101310.19
2022-10-23T17:06:06.187Z,101298.25
2022-10-23T17:11:14.230Z,101291.47
2022-10-23T17:16:20.928Z,101286.19
2022-10-23T17:21:26.109Z,101296.75
2022-10-23T17:26:30.090Z,101294.06
2022-10-23T17:31:35.186Z,101296.53
2022-10-23T17:36:42.434Z,101298.13
2022-10-23T17:41:46.197Z,101296.25
2022-10-23T17:46:52.182Z,101300.06
2022-10-23T17:51:58.173Z,101290.53
2022-10-23T17:57:01.707Z,101290.66
2022-10-23T18:02:05.299Z,101294.16
2022-10-23T18:07:10.517Z,101280.84
2022-10-23T18:12:14.054Z,101278.66
2022-10-23T18:17:17.590Z,101279.97
2022-10-23T18:22:22.820Z,101273.59
2022-10-23T18:27:26.410Z,101292.22
2022-10-23T18:32:29.953Z,101279.81
2022-10-23T18:37:38.974Z,101261.34
2022-10-23T18:42:45.340Z,101261.16
2022-10-23T18:47:49.259Z,101246.63
2022-10-23T18:52:54.610Z,101255.97
2022-10-23T18:57:57.400Z,101263.22
2022-10-23T19:03:01.607Z,101253.72
2022-10-23T19:08:07.122Z,101266.66
2022-10-23T19:13:10.710Z,101269.53
2022-10-23T19:18:14.352Z,101258.41
2022-10-23T19:23:19.573Z,101260.03
2022-10-23T19:28:23.174Z,101258.13
2022-10-23T19:33:26.719Z,101265.13
2022-10-23T19:38:31.933Z,101261.28
2022-10-23T19:43:35.495Z,101241.22
2022-10-23T19:48:39.099Z,101235.25
2022-10-23T19:53:44.293Z,101222.06
2022-10-23T19:58:48.100Z,101204.97
2022-10-23T20:03:51.780Z,101197.84
2022-10-23T20:08:57.559Z,101187.16
2022-10-23T20:14:01.092Z,101190.44
2022-10-23T20:19:05.953Z,101170.84
2022-10-23T20:24:12.431Z,101174.50
2022-10-23T20:29:16.165Z,101164.56
2022-10-23T20:34:19.894Z,101153.78
2022-10-23T20:39:25.663Z,101156.59
2022-10-23T20:44:29.628Z,101154.53
2022-10-23T20:49:33.212Z,101132.81
2022-10-23T20:54:38.398Z,101146.25
2022-10-23T20:59:41.169Z,101142.56
2022-10-23T21:04:44.837Z,101141.81
2022-10-23T21:09:50.055Z,101139.94
2022-10-23T21:14:53.873Z,101156.13
2022-10-23T21:19:57.426Z,101135.84
2022-10-23T21:25:02.614Z,101146.97
2022-10-23T21:30:05.907Z,101142.13
2022-10-23T21:35:10.902Z,101130.25
2022-10-23T21:40:17.445Z,101136.97
2022-10-23T21:45:21.001Z,101140.34
2022-10-23T21:50:24.589Z,101120.94
2022-10-23T21:55:31.510Z,101118.03
2022-10-23T22:00:35.037Z,101120.41
2022-10-23T22:05:38.565Z,101116.56
2022-10-23T22:10:43.746Z,101143.59
2022-10-23T22:15:46.526Z,101144.75
2022-10-23T22:20:50.713Z,101145.25
2022-10-23T22:25:56.133Z,101141.53
2022-10-23T22:31:00.315Z,101143.31
2022-10-23T22:36:04.107Z,101137.50
2022-10-23T22:41:09.716Z,101143.38
2022-10-23T22:46:15.339Z,101146.50
2022-10-23T22:51:21.096Z,101152.09
2022-10-23T22:56:28.062Z,101163.38
2022-10-23T23:01:34.733Z,101162.69
2022-10-23T23:06:38.319Z,101157.38
2022-10-23T23:11:51.302Z,101144.34
2022-10-23T23:16:55.482Z,101153.66
2022-10-23T23:21:59.828Z,101134.69
2022-10-23T23:27:05.165Z,101126.41
2022-10-23T23:32:07.957Z,101145.59
2022-10-23T23:37:11.503Z,101152.28
2022-10-23T23:42:16.686Z,101139.03
2022-10-23T23:47:20.281Z,101136.16
2022-10-23T23:52:24.019Z,101145.41
2022-10-23T23:57:29.396Z,101145.31
